Time;durP1;ratioP1;P1;durP2;ratioP2;P2;SDS_P1;SDS_P2;PMS_P1;PMS_P2;Temp;Humidity;BMP_temperature;BMP_pressure;BME280_temperature;BME280_humidity;BME280_pressure;Samples;Min_cycle;Max_cycle;Signal;HPM_P1;HPM_P2
2022/02/25 00:00:31;;;;;;;2.15;0.80;;;3.10;92.50;;;;;;2061618;28;20039;-90
2022/02/25 00:01:32;;;;;;;3.35;1.00;;;3.10;92.50;;;;;;2064851;28;20114;-91
2022/02/25 00:02:33;;;;;;;1.13;0.60;;;3.10;92.50;;;;;;2057507;28;20098;-91
2022/02/25 00:03:34;;;;;;;1.65;0.60;;;3.10;92.50;;;;;;2056711;28;20053;-90
2022/02/25 00:04:34;;;;;;;4.18;0.70;;;3.10;92.50;;;;;;2055244;28;20094;-90
2022/02/25 00:05:35;;;;;;;2.80;0.93;;;3.00;92.50;;;;;;2044720;28;20043;-90
2022/02/25 00:06:36;;;;;;;1.55;0.63;;;3.00;92.50;;;;;;2053399;28;20094;-90
2022/02/25 00:07:36;;;;;;;2.67;0.68;;;3.00;92.50;;;;;;2053881;28;20043;-90
2022/02/25 00:08:37;;;;;;;1.40;0.60;;;3.00;92.50;;;;;;2041037;28;20089;-90
2022/02/25 00:09:38;;;;;;;2.35;0.60;;;3.00;92.50;;;;;;2053964;28;20080;-90
2022/02/25 00:10:38;;;;;;;2.53;0.65;;;3.00;92.50;;;;;;2064796;28;20077;-90
2022/02/25 00:11:39;;;;;;;2.33;0.80;;;3.00;92.50;;;;;;2063578;28;20038;-91
2022/02/25 00:12:40;;;;;;;1.10;0.47;;;3.00;92.50;;;;;;2056938;28;20039;-91
2022/02/25 00:13:41;;;;;;;2.00;0.50;;;3.00;92.50;;;;;;2053169;28;20042;-91
2022/02/25 00:14:41;;;;;;;1.27;0.50;;;3.00;92.50;;;;;;2099067;28;20124;-90
2022/02/25 00:15:42;;;;;;;2.92;0.57;;;3.00;92.60;;;;;;2056045;28;20047;-90
2022/02/25 00:16:43;;;;;;;1.70;0.65;;;3.00;92.50;;;;;;2063616;28;20197;-90
2022/02/25 00:17:43;;;;;;;1.95;0.60;;;3.00;92.60;;;;;;2062627;28;20050;-91
2022/02/25 00:18:45;;;;;;;2.55;0.60;;;2.90;92.50;;;;;;2087978;28;20495;-90
2022/02/25 00:19:45;;;;;;;2.58;0.70;;;3.00;92.60;;;;;;2064186;28;20476;-90
2022/02/25 00:20:46;;;;;;;3.25;0.70;;;3.00;92.60;;;;;;2090417;28;20063;-90
2022/02/25 00:21:47;;;;;;;1.58;0.50;;;3.00;92.60;;;;;;2085024;28;20112;-90
2022/02/25 00:22:48;;;;;;;2.83;0.60;;;2.90;92.50;;;;;;2076337;28;20109;-90
2022/02/25 00:23:49;;;;;;;2.28;0.50;;;2.90;92.50;;;;;;2067352;28;20148;-90
2022/02/25 00:24:50;;;;;;;2.38;0.60;;;2.90;92.50;;;;;;2059649;28;20441;-90
2022/02/25 00:25:50;;;;;;;1.85;0.63;;;2.90;92.60;;;;;;2058676;28;20062;-90
2022/02/25 00:26:51;;;;;;;2.13;0.40;;;2.90;92.60;;;;;;2056610;28;20520;-91
2022/02/25 00:27:51;;;;;;;2.60;0.70;;;2.90;92.60;;;;;;2054375;28;20126;-90
2022/02/25 00:28:52;;;;;;;3.85;0.70;;;2.90;92.60;;;;;;2065850;28;20042;-90
2022/02/25 00:29:54;;;;;;;2.50;0.55;;;2.90;92.60;;;;;;2057573;28;20043;-90
2022/02/25 00:30:55;;;;;;;2.15;0.63;;;2.90;92.60;;;;;;2062468;28;20103;-90
2022/02/25 00:31:55;;;;;;;1.95;0.70;;;2.90;92.60;;;;;;2065088;28;20050;-90
2022/02/25 00:32:56;;;;;;;3.25;0.70;;;2.90;92.60;;;;;;2048375;28;20065;-90
2022/02/25 00:33:57;;;;;;;2.35;0.50;;;2.90;92.60;;;;;;2041527;28;20442;-91
2022/02/25 00:34:57;;;;;;;1.83;0.50;;;2.90;92.60;;;;;;2071767;28;20031;-90
2022/02/25 00:35:58;;;;;;;4.13;0.88;;;2.90;92.60;;;;;;2075229;28;20070;-89
2022/02/25 00:36:59;;;;;;;4.60;0.60;;;2.90;92.60;;;;;;2077205;28;20065;-90
2022/02/25 00:37:59;;;;;;;2.55;0.73;;;2.90;92.60;;;;;;2063109;28;20134;-90
2022/02/25 00:39:00;;;;;;;2.53;0.70;;;2.90;92.60;;;;;;2057760;28;20122;-90
2022/02/25 00:40:02;;;;;;;5.07;0.70;;;2.90;92.60;;;;;;2051770;28;20087;-90
2022/02/25 00:41:03;;;;;;;2.78;0.60;;;2.90;92.60;;;;;;2064949;28;20041;-90
2022/02/25 00:42:06;;;;;;;2.05;0.50;;;2.90;92.60;;;;;;2070646;28;20083;-90
2022/02/25 00:43:06;;;;;;;4.03;0.75;;;2.90;92.60;;;;;;2048511;29;20058;-90
2022/02/25 00:44:07;;;;;;;1.30;0.50;;;2.90;92.60;;;;;;2056712;28;20035;-90
2022/02/25 00:45:08;;;;;;;2.75;0.63;;;2.90;92.60;;;;;;2065058;28;20042;-90
2022/02/25 00:46:09;;;;;;;3.88;0.80;;;2.90;92.60;;;;;;2096080;28;20032;-91
2022/02/25 00:47:10;;;;;;;3.92;0.73;;;3.00;92.60;;;;;;2098107;28;20043;-90
2022/02/25 00:48:10;;;;;;;1.83;0.63;;;3.00;92.60;;;;;;2086314;28;20514;-90
2022/02/25 00:49:11;;;;;;;2.42;0.60;;;3.00;92.60;;;;;;2055912;28;20034;-90
2022/02/25 00:50:12;;;;;;;1.58;0.40;;;3.00;92.50;;;;;;2054096;28;20528;-91
2022/02/25 00:51:12;;;;;;;4.50;0.50;;;3.00;92.50;;;;;;2056477;28;20096;-90
2022/02/25 00:52:13;;;;;;;2.72;0.70;;;3.00;92.50;;;;;;2050081;28;20027;-90
2022/02/25 00:53:13;;;;;;;2.10;0.70;;;3.10;92.50;;;;;;2048616;29;20497;-89
2022/02/25 00:54:14;;;;;;;2.83;0.68;;;3.10;92.40;;;;;;2056538;28;20027;-90
2022/02/25 00:55:15;;;;;;;2.42;0.65;;;3.10;92.40;;;;;;2055047;28;20069;-91
2022/02/25 00:56:15;;;;;;;2.60;0.93;;;3.10;92.40;;;;;;2049063;28;20402;-91
2022/02/25 00:57:16;;;;;;;2.10;0.60;;;3.10;92.30;;;;;;2089733;28;20415;-91
2022/02/25 00:58:17;;;;;;;2.63;0.60;;;3.10;92.30;;;;;;2088465;28;20132;-90
2022/02/25 00:59:17;;;;;;;2.05;0.80;;;3.20;92.30;;;;;;2063864;28;20066;-91
2022/02/25 01:00:20;;;;;;;2.17;0.55;;;3.10;92.30;;;;;;2061473;28;20043;-90
2022/02/25 01:01:20;;;;;;;3.22;0.70;;;3.20;92.30;;;;;;2060878;28;20145;-91
2022/02/25 01:02:21;;;;;;;2.50;0.82;;;3.20;92.30;;;;;;2058332;28;20130;-90
2022/02/25 01:03:22;;;;;;;3.50;0.85;;;3.20;92.20;;;;;;2106729;28;20032;-90
2022/02/25 01:04:23;;;;;;;3.38;0.82;;;3.20;92.20;;;;;;2075737;28;20074;-90
2022/02/25 01:05:23;;;;;;;2.75;0.55;;;3.20;92.20;;;;;;2064811;28;20038;-91
2022/02/25 01:06:24;;;;;;;2.97;0.77;;;3.20;92.20;;;;;;2062822;28;20050;-90
2022/02/25 01:07:25;;;;;;;2.47;0.45;;;3.20;92.20;;;;;;2075414;28;20041;-90
2022/02/25 01:08:25;;;;;;;2.97;0.80;;;3.20;92.20;;;;;;2086857;28;20130;-90
2022/02/25 01:09:26;;;;;;;2.65;0.82;;;3.20;92.20;;;;;;2066542;28;20090;-90
2022/02/25 01:10:27;;;;;;;3.22;0.55;;;3.20;92.20;;;;;;2098083;28;20051;-91
2022/02/25 01:11:27;;;;;;;4.28;1.08;;;3.20;92.20;;;;;;2082912;28;20048;-90
2022/02/25 01:12:28;;;;;;;4.63;0.85;;;3.10;92.20;;;;;;2081343;28;20056;-90
2022/02/25 01:13:29;;;;;;;3.22;0.80;;;3.10;92.10;;;;;;2077112;28;20094;-90
2022/02/25 01:14:29;;;;;;;5.53;0.75;;;3.10;92.20;;;;;;2056362;28;20058;-90
2022/02/25 01:15:31;;;;;;;2.47;0.50;;;3.10;92.20;;;;;;2064513;28;20036;-90
2022/02/25 01:16:32;;;;;;;1.73;0.47;;;3.10;92.20;;;;;;2045330;28;20566;-90
2022/02/25 01:17:33;;;;;;;2.33;0.60;;;3.10;92.20;;;;;;2053054;28;20468;-90
2022/02/25 01:18:34;;;;;;;3.53;0.80;;;3.10;92.20;;;;;;2081865;28;20064;-90
2022/02/25 01:19:34;;;;;;;2.65;0.50;;;3.10;92.20;;;;;;2070044;28;20056;-90
2022/02/25 01:20:35;;;;;;;3.05;0.77;;;3.00;92.20;;;;;;2098255;28;20066;-90
2022/02/25 01:21:36;;;;;;;3.35;0.70;;;3.00;92.20;;;;;;2063407;28;20119;-90
2022/02/25 01:22:37;;;;;;;1.90;0.60;;;3.00;92.20;;;;;;2058122;28;20047;-90
2022/02/25 01:23:38;;;;;;;2.95;0.68;;;3.00;92.20;;;;;;2048696;28;20036;-90
2022/02/25 01:24:39;;;;;;;2.85;0.77;;;3.00;92.20;;;;;;2056147;28;20082;-91
2022/02/25 01:25:40;;;;;;;4.03;0.52;;;3.00;92.20;;;;;;2063613;28;20038;-91
2022/02/25 01:26:40;;;;;;;3.28;0.60;;;3.00;92.20;;;;;;2056641;28;20378;-91
2022/02/25 01:27:42;;;;;;;3.33;0.50;;;2.90;92.20;;;;;;2071084;28;20035;-90
2022/02/25 01:28:43;;;;;;;4.15;0.85;;;3.00;92.20;;;;;;2063885;28;20046;-90
2022/02/25 01:29:44;;;;;;;4.25;0.80;;;2.90;92.20;;;;;;2065609;28;20035;-91
2022/02/25 01:30:44;;;;;;;3.65;1.00;;;2.90;92.20;;;;;;2082110;28;20037;-90
2022/02/25 01:31:46;;;;;;;3.33;0.80;;;2.90;92.20;;;;;;2078616;28;20053;-91
2022/02/25 01:32:46;;;;;;;3.35;0.65;;;2.90;92.20;;;;;;2056296;28;20031;-90
2022/02/25 01:33:47;;;;;;;4.18;0.85;;;2.90;92.20;;;;;;2054965;28;20039;-90
2022/02/25 01:34:48;;;;;;;3.65;0.90;;;2.90;92.30;;;;;;2046392;28;20209;-89
2022/02/25 01:35:48;;;;;;;2.78;0.63;;;2.80;92.20;;;;;;2077583;28;20040;-90
2022/02/25 01:36:49;;;;;;;2.53;0.75;;;2.80;92.30;;;;;;2098046;28;20128;-91
2022/02/25 01:37:51;;;;;;;3.38;0.70;;;2.80;92.30;;;;;;2077527;28;20046;-91
2022/02/25 01:38:52;;;;;;;3.78;0.68;;;2.80;92.30;;;;;;2048569;28;20066;-90
2022/02/25 01:39:53;;;;;;;1.27;0.47;;;2.80;92.30;;;;;;2055786;28;20611;-90
2022/02/25 01:40:54;;;;;;;4.47;0.80;;;2.80;92.30;;;;;;2064494;28;20034;-89
2022/02/25 01:41:55;;;;;;;2.50;0.63;;;2.80;92.30;;;;;;2065987;28;20096;-89
2022/02/25 01:42:56;;;;;;;2.67;0.60;;;2.80;92.30;;;;;;2060089;28;20044;-90
2022/02/25 01:44:17;;;;;;;3.25;0.85;;;2.70;92.30;;;;;;2054314;28;20038;-90
2022/02/25 01:45:20;;;;;;;5.10;0.70;;;2.80;92.40;;;;;;2058707;28;20052;-89
2022/02/25 01:46:20;;;;;;;2.10;0.63;;;2.70;92.30;;;;;;2064782;28;20030;-90
2022/02/25 01:47:21;;;;;;;5.93;0.90;;;2.70;92.30;;;;;;2060939;28;20043;-90
2022/02/25 01:48:22;;;;;;;2.03;0.60;;;2.70;92.30;;;;;;2061204;28;20034;-90
2022/02/25 01:49:24;;;;;;;3.00;0.68;;;2.70;92.30;;;;;;2055961;28;20038;-90
2022/02/25 01:50:25;;;;;;;4.18;1.00;;;2.70;92.40;;;;;;2070699;28;20033;-90
2022/02/25 01:51:26;;;;;;;3.45;0.85;;;2.70;92.40;;;;;;2088314;28;20168;-90
2022/02/25 01:52:26;;;;;;;4.68;0.88;;;2.70;92.40;;;;;;2098061;28;20032;-90
2022/02/25 01:53:27;;;;;;;2.22;0.90;;;2.70;92.40;;;;;;2075756;28;20101;-90
2022/02/25 01:54:29;;;;;;;3.72;0.90;;;2.70;92.40;;;;;;2059458;28;20046;-90
2022/02/25 01:55:31;;;;;;;2.95;0.85;;;2.60;92.40;;;;;;2056126;28;20329;-90
2022/02/25 01:56:31;;;;;;;3.10;0.90;;;2.60;92.40;;;;;;2091123;28;20038;-90
2022/02/25 01:57:32;;;;;;;3.03;1.05;;;2.60;92.40;;;;;;2056591;28;20039;-89
2022/02/25 01:58:33;;;;;;;3.70;1.10;;;2.60;92.40;;;;;;2056184;28;20035;-90
2022/02/25 01:59:33;;;;;;;2.47;0.80;;;2.60;92.50;;;;;;2081403;28;20044;-90
2022/02/25 02:00:35;;;;;;;4.07;0.98;;;2.60;92.50;;;;;;2055626;28;20039;-90
2022/02/25 02:01:36;;;;;;;2.83;0.90;;;2.60;92.50;;;;;;2055536;28;20039;-90
2022/02/25 02:02:37;;;;;;;3.60;1.00;;;2.60;92.50;;;;;;2056149;28;20548;-91
2022/02/25 02:03:38;;;;;;;2.58;1.00;;;2.60;92.50;;;;;;2056198;28;20074;-90
2022/02/25 02:04:39;;;;;;;3.90;1.10;;;2.60;92.50;;;;;;2080680;28;20036;-91
2022/02/25 02:05:39;;;;;;;4.18;1.20;;;2.60;92.50;;;;;;2063882;28;20034;-90
2022/02/25 02:06:40;;;;;;;4.47;1.23;;;2.60;92.50;;;;;;2042555;28;20047;-90
2022/02/25 02:07:41;;;;;;;2.95;1.05;;;2.60;92.50;;;;;;2049742;28;20158;-91
2022/02/25 02:08:42;;;;;;;4.18;1.27;;;2.60;92.50;;;;;;2080513;28;20041;-90
2022/02/25 02:09:43;;;;;;;2.55;1.00;;;2.60;92.50;;;;;;2089226;28;20041;-90
2022/02/25 02:10:43;;;;;;;3.53;1.20;;;2.60;92.50;;;;;;2088296;28;20036;-91
2022/02/25 02:11:46;;;;;;;4.32;1.20;;;2.60;92.50;;;;;;2064025;28;20043;-90
2022/02/25 02:12:47;;;;;;;3.80;1.23;;;2.60;92.80;;;;;;2063399;28;20043;-91
2022/02/25 02:13:48;;;;;;;4.80;1.02;;;2.50;92.80;;;;;;2056508;28;20070;-91
2022/02/25 02:14:49;;;;;;;4.57;1.15;;;2.50;92.50;;;;;;2092315;28;20056;-90
2022/02/25 02:15:50;;;;;;;4.10;1.27;;;2.50;92.50;;;;;;2094823;28;20090;-90
2022/02/25 02:16:53;;;;;;;4.75;1.45;;;2.50;92.50;;;;;;2086804;28;20555;-90
2022/02/25 02:17:54;;;;;;;4.63;1.25;;;2.50;92.50;;;;;;2085853;28;20731;-89
2022/02/25 02:18:55;;;;;;;4.57;1.40;;;2.50;92.50;;;;;;2090380;28;20037;-90
2022/02/25 02:19:56;;;;;;;4.43;1.20;;;2.50;92.50;;;;;;2079184;28;20625;-89
2022/02/25 02:20:57;;;;;;;2.00;1.00;;;2.50;92.50;;;;;;2073489;28;20045;-90
2022/02/25 02:21:58;;;;;;;3.45;1.20;;;2.50;92.50;;;;;;2092328;28;20225;-91
2022/02/25 02:22:59;;;;;;;4.15;1.20;;;2.50;92.60;;;;;;2097882;28;20040;-90
2022/02/25 02:24:01;;;;;;;4.70;1.40;;;2.50;92.60;;;;;;2094195;28;20055;-90
2022/02/25 02:25:03;;;;;;;4.53;1.58;;;2.50;92.60;;;;;;2091488;28;20037;-90
2022/02/25 02:26:03;;;;;;;6.18;1.50;;;2.50;92.60;;;;;;2080310;28;20125;-90
2022/02/25 02:27:04;;;;;;;3.17;1.20;;;2.50;92.60;;;;;;2085148;28;20400;-90
2022/02/25 02:28:21;;;;;;;4.03;1.30;;;2.50;92.60;;;;;;2093377;28;20032;-90
2022/02/25 02:29:22;;;;;;;4.03;1.45;;;2.50;92.60;;;;;;2075657;28;20156;-90
2022/02/25 02:30:23;;;;;;;4.07;1.20;;;2.50;92.60;;;;;;2077461;28;20044;-90
2022/02/25 02:31:25;;;;;;;3.15;1.50;;;2.50;92.60;;;;;;2084169;28;20118;-90
2022/02/25 02:32:25;;;;;;;5.03;1.60;;;2.50;92.60;;;;;;2097933;28;20476;-89
2022/02/25 02:33:26;;;;;;;2.65;1.20;;;2.50;92.60;;;;;;2089541;28;20061;-89
2022/02/25 02:34:26;;;;;;;2.97;1.23;;;2.50;92.60;;;;;;2081505;28;20034;-90
2022/02/25 02:35:27;;;;;;;3.22;1.30;;;2.50;92.60;;;;;;2091735;28;20055;-91
2022/02/25 02:36:28;;;;;;;3.75;1.40;;;2.50;92.60;;;;;;2095030;28;20095;-91
2022/02/25 02:37:29;;;;;;;4.55;1.30;;;2.50;92.60;;;;;;2081516;28;20524;-90
2022/02/25 02:38:30;;;;;;;3.00;1.33;;;2.50;92.60;;;;;;2092633;28;20061;-90
2022/02/25 02:39:31;;;;;;;4.00;1.50;;;2.50;92.60;;;;;;2111032;28;20012;-90
2022/02/25 02:40:31;;;;;;;2.95;1.30;;;2.40;92.60;;;;;;2106990;28;20135;-90
2022/02/25 02:41:32;;;;;;;2.85;1.42;;;2.50;92.60;;;;;;2105784;28;20043;-90
2022/02/25 02:42:33;;;;;;;3.50;1.50;;;2.50;92.60;;;;;;2099935;28;20065;-89
2022/02/25 02:43:34;;;;;;;3.28;1.40;;;2.50;92.60;;;;;;2091626;28;20025;-90
2022/02/25 02:44:35;;;;;;;3.70;1.40;;;2.50;92.70;;;;;;2082506;28;20034;-90
2022/02/25 02:45:37;;;;;;;3.35;1.33;;;2.50;92.70;;;;;;2091414;28;20045;-90
2022/02/25 02:46:38;;;;;;;4.15;1.35;;;2.50;92.70;;;;;;2098830;28;20032;-91
2022/02/25 02:47:39;;;;;;;5.60;1.65;;;2.50;92.70;;;;;;2090855;28;20029;-90
2022/02/25 02:48:40;;;;;;;2.60;1.30;;;2.50;92.70;;;;;;2091045;28;20033;-90
2022/02/25 02:49:41;;;;;;;4.50;1.60;;;2.50;92.70;;;;;;2090528;28;20040;-90
2022/02/25 02:50:42;;;;;;;4.07;1.30;;;2.50;92.70;;;;;;2091192;28;20037;-90
2022/02/25 02:51:42;;;;;;;2.42;0.98;;;2.40;92.70;;;;;;2089701;28;20041;-90
2022/02/25 02:52:43;;;;;;;3.13;1.30;;;2.50;92.70;;;;;;2082678;28;20063;-89
2022/02/25 02:53:44;;;;;;;4.28;1.30;;;2.40;92.70;;;;;;2091117;28;20073;-90
2022/02/25 02:54:45;;;;;;;6.20;1.50;;;2.50;93.00;;;;;;2089454;28;20044;-90
2022/02/25 02:55:46;;;;;;;4.88;1.38;;;2.40;92.70;;;;;;2093230;28;20071;-89
2022/02/25 02:56:46;;;;;;;3.95;1.50;;;2.50;92.70;;;;;;2091821;28;20040;-90
2022/02/25 02:57:47;;;;;;;4.10;1.52;;;2.40;92.70;;;;;;2099557;28;20062;-89
2022/02/25 02:58:55;;;;;;;4.03;1.60;;;2.40;92.70;;;;;;2092278;28;20056;-91
2022/02/25 02:59:56;;;;;;;4.00;1.55;;;2.40;93.00;;;;;;2091087;28;20519;-90
2022/02/25 03:00:57;;;;;;;7.47;1.58;;;2.40;92.70;;;;;;2097541;28;20036;-91
2022/02/25 03:01:58;;;;;;;3.20;1.33;;;2.40;93.00;;;;;;2097379;28;20029;-90
2022/02/25 03:02:59;;;;;;;2.92;1.35;;;2.40;92.70;;;;;;2107734;28;20466;-90
2022/02/25 03:03:59;;;;;;;3.15;1.38;;;2.40;92.70;;;;;;2108320;28;20456;-90
2022/02/25 03:05:00;;;;;;;3.75;1.27;;;2.40;92.70;;;;;;2107783;28;20040;-90
2022/02/25 03:06:01;;;;;;;2.97;1.27;;;2.40;92.70;;;;;;2096118;28;22262;-89
2022/02/25 03:07:02;;;;;;;2.75;1.30;;;2.40;92.70;;;;;;2087975;28;20041;-90
2022/02/25 03:08:04;;;;;;;4.38;1.60;;;2.40;92.80;;;;;;2093835;28;20131;-90
2022/02/25 03:09:05;;;;;;;3.85;1.58;;;2.40;92.80;;;;;;2090436;28;20036;-90
2022/02/25 03:10:06;;;;;;;4.15;1.45;;;2.40;92.80;;;;;;2085397;28;20142;-91
2022/02/25 03:11:06;;;;;;;4.18;1.50;;;2.40;92.80;;;;;;2101852;28;20040;-89
2022/02/25 03:12:08;;;;;;;4.20;1.50;;;2.40;92.80;;;;;;2098491;28;20045;-90
2022/02/25 03:13:10;;;;;;;4.93;1.40;;;2.40;92.80;;;;;;2089928;28;20143;-90
2022/02/25 03:14:10;;;;;;;4.72;1.50;;;2.40;92.80;;;;;;2095751;28;20098;-90
2022/02/25 03:15:13;;;;;;;3.95;1.38;;;2.40;92.80;;;;;;2096727;28;20093;-90
2022/02/25 03:16:14;;;;;;;5.07;1.60;;;2.40;92.80;;;;;;2082141;28;20062;-90
2022/02/25 03:17:15;;;;;;;2.95;1.50;;;2.40;92.80;;;;;;2065188;28;20042;-90
2022/02/25 03:18:16;;;;;;;4.43;1.40;;;2.40;92.80;;;;;;2055378;28;20034;-90
2022/02/25 03:19:17;;;;;;;3.15;1.40;;;2.40;92.80;;;;;;2049315;29;20038;-91
2022/02/25 03:20:18;;;;;;;4.05;1.42;;;2.40;92.80;;;;;;2062097;28;20137;-90
2022/02/25 03:21:18;;;;;;;4.28;1.60;;;2.40;92.70;;;;;;2062673;28;20057;-91
2022/02/25 03:22:19;;;;;;;4.47;1.65;;;2.40;92.70;;;;;;2099161;28;20036;-90
2022/02/25 03:23:19;;;;;;;4.30;1.42;;;2.40;92.70;;;;;;2098949;28;20046;-90
2022/02/25 03:24:20;;;;;;;4.93;1.60;;;2.40;92.70;;;;;;2063789;28;20092;-90
2022/02/25 03:25:22;;;;;;;3.38;1.65;;;2.40;92.70;;;;;;2066394;28;20047;-89
2022/02/25 03:26:22;;;;;;;3.38;1.35;;;2.50;92.70;;;;;;2065731;28;20045;-90
2022/02/25 03:27:23;;;;;;;4.10;1.65;;;2.40;92.70;;;;;;2051061;28;20082;-90
2022/02/25 03:28:24;;;;;;;3.83;1.40;;;2.50;92.70;;;;;;2070068;28;20054;-91
2022/02/25 03:29:25;;;;;;;3.20;1.30;;;2.40;92.70;;;;;;2079036;28;20531;-90
2022/02/25 03:30:25;;;;;;;4.10;1.60;;;2.40;92.70;;;;;;2074375;28;20120;-90
2022/02/25 03:31:26;;;;;;;5.10;1.80;;;2.40;92.70;;;;;;2065261;28;20072;-89
2022/02/25 03:32:27;;;;;;;6.32;1.48;;;2.50;92.70;;;;;;2063453;28;20126;-90
2022/02/25 03:33:27;;;;;;;4.97;1.58;;;2.50;92.70;;;;;;2064240;28;20080;-90
2022/02/25 03:34:28;;;;;;;4.22;1.38;;;2.50;92.70;;;;;;2064391;28;20049;-90
2022/02/25 03:35:30;;;;;;;3.40;1.50;;;2.50;92.70;;;;;;2058375;28;20046;-89
2022/02/25 03:36:31;;;;;;;4.03;1.63;;;2.50;92.70;;;;;;2077985;28;20029;-90
2022/02/25 03:37:31;;;;;;;5.13;1.48;;;2.40;92.70;;;;;;2094348;28;20074;-91
2022/02/25 03:38:32;;;;;;;5.13;1.48;;;2.40;92.70;;;;;;2071821;28;20035;-90
2022/02/25 03:39:33;;;;;;;5.40;1.65;;;2.50;92.70;;;;;;2058493;28;20051;-90
2022/02/25 03:40:33;;;;;;;6.18;1.80;;;2.50;92.70;;;;;;2065123;28;20030;-90
2022/02/25 03:41:34;;;;;;;3.95;1.55;;;2.50;92.70;;;;;;2060264;28;20058;-90
2022/02/25 03:42:35;;;;;;;3.95;1.40;;;2.50;92.70;;;;;;2064877;28;20039;-89
2022/02/25 03:43:35;;;;;;;4.13;1.42;;;2.50;92.70;;;;;;2085178;28;20029;-89
2022/02/25 03:44:37;;;;;;;6.70;1.50;;;2.50;92.70;;;;;;2048775;28;20522;-90
2022/02/25 03:45:37;;;;;;;4.45;1.30;;;2.50;92.70;;;;;;2049152;28;20038;-91
2022/02/25 03:46:38;;;;;;;4.68;1.48;;;2.50;92.70;;;;;;2067465;28;20070;-90
2022/02/25 03:47:39;;;;;;;4.43;1.58;;;2.50;92.70;;;;;;2058544;28;20564;-90
2022/02/25 03:48:40;;;;;;;5.22;1.50;;;2.50;92.70;;;;;;2059752;28;20067;-90
2022/02/25 03:49:40;;;;;;;4.97;1.58;;;2.50;92.70;;;;;;2078540;28;20171;-90
2022/02/25 03:50:41;;;;;;;4.63;1.40;;;2.50;92.70;;;;;;2055935;28;20047;-90
2022/02/25 03:51:42;;;;;;;5.15;1.52;;;2.50;92.70;;;;;;2084852;28;20041;-90
2022/02/25 03:52:42;;;;;;;3.92;1.20;;;2.50;92.70;;;;;;2049129;28;20043;-90
2022/02/25 03:53:43;;;;;;;4.93;1.63;;;2.50;92.70;;;;;;2053533;28;20082;-90
2022/02/25 03:54:44;;;;;;;5.00;1.23;;;2.50;92.70;;;;;;2049288;28;20379;-90
2022/02/25 03:55:44;;;;;;;3.92;1.30;;;2.50;92.70;;;;;;2068748;28;20089;-90
2022/02/25 03:56:45;;;;;;;3.53;1.25;;;2.50;92.70;;;;;;2055820;28;20039;-90
2022/02/25 03:57:46;;;;;;;4.30;1.58;;;2.50;92.70;;;;;;2090063;28;20519;-91
2022/02/25 03:58:46;;;;;;;2.90;1.02;;;2.50;92.70;;;;;;2040585;28;20042;-90
2022/02/25 03:59:47;;;;;;;3.88;1.10;;;2.50;92.70;;;;;;2048881;28;20047;-90
2022/02/25 04:00:48;;;;;;;6.05;1.48;;;2.50;92.70;;;;;;2064287;28;20407;-90
2022/02/25 04:01:52;;;;;;;4.03;1.45;;;2.50;92.70;;;;;;2056690;28;20512;-90
2022/02/25 04:02:53;;;;;;;3.67;1.33;;;2.50;92.70;;;;;;2077791;28;20029;-90
2022/02/25 04:03:54;;;;;;;4.93;1.38;;;2.50;92.70;;;;;;2075990;28;20039;-90
2022/02/25 04:04:54;;;;;;;6.25;1.33;;;2.50;93.00;;;;;;2107587;28;20060;-90
2022/02/25 04:05:55;;;;;;;3.95;1.20;;;2.50;92.70;;;;;;2083203;28;20094;-91
2022/02/25 04:06:56;;;;;;;4.75;1.30;;;2.50;92.70;;;;;;2056840;28;20065;-90
2022/02/25 04:07:56;;;;;;;5.22;1.05;;;2.50;92.70;;;;;;2056421;28;20043;-90
2022/02/25 04:08:57;;;;;;;7.03;1.48;;;2.50;92.70;;;;;;2056755;28;20067;-90
2022/02/25 04:09:57;;;;;;;3.25;1.13;;;2.50;92.70;;;;;;2048594;28;20483;-91
2022/02/25 04:10:58;;;;;;;3.17;1.10;;;2.40;92.70;;;;;;2064765;28;20071;-90
2022/02/25 04:12:01;;;;;;;2.47;1.10;;;2.50;92.70;;;;;;2088328;28;20044;-91
2022/02/25 04:13:04;;;;;;;3.88;1.40;;;2.50;92.70;;;;;;2049260;28;20413;-90
2022/02/25 04:14:05;;;;;;;3.72;1.40;;;2.50;92.70;;;;;;2057512;28;20034;-90
2022/02/25 04:15:07;;;;;;;5.70;1.40;;;2.50;92.70;;;;;;2055759;28;20428;-90
2022/02/25 04:16:08;;;;;;;5.40;1.10;;;2.50;92.70;;;;;;2048026;29;20043;-90
2022/02/25 04:17:08;;;;;;;4.85;1.30;;;2.50;92.70;;;;;;2089285;28;20079;-90
2022/02/25 04:18:10;;;;;;;3.22;1.40;;;2.50;92.70;;;;;;2065311;28;20228;-90
2022/02/25 04:19:10;;;;;;;4.70;1.30;;;2.40;92.70;;;;;;2055715;28;20023;-91
2022/02/25 04:20:11;;;;;;;4.07;1.20;;;2.40;92.70;;;;;;2048953;28;20468;-90
2022/02/25 04:21:13;;;;;;;6.63;1.65;;;2.40;92.70;;;;;;2057129;28;20071;-90
2022/02/25 04:22:14;;;;;;;3.30;1.20;;;2.40;92.70;;;;;;2058665;28;20131;-90
2022/02/25 04:23:14;;;;;;;4.93;1.20;;;2.40;92.70;;;;;;2057445;28;20034;-90
2022/02/25 04:24:16;;;;;;;6.25;1.40;;;2.40;92.70;;;;;;2064593;28;20522;-90
2022/02/25 04:25:16;;;;;;;4.72;1.45;;;2.40;92.70;;;;;;2059214;28;20043;-90
2022/02/25 04:26:17;;;;;;;4.30;1.63;;;2.40;92.70;;;;;;2056938;28;20073;-90
2022/02/25 04:27:18;;;;;;;4.63;1.40;;;2.40;92.70;;;;;;2057251;28;20043;-90
2022/02/25 04:28:19;;;;;;;4.10;1.20;;;2.40;92.70;;;;;;2068707;28;20091;-90
2022/02/25 04:29:20;;;;;;;4.85;1.50;;;2.40;92.80;;;;;;2068928;28;20058;-91
2022/02/25 04:30:21;;;;;;;6.68;1.30;;;2.40;92.80;;;;;;2048605;28;20042;-90
2022/02/25 04:31:22;;;;;;;4.32;1.20;;;2.40;92.80;;;;;;2056506;28;20039;-90
2022/02/25 04:32:22;;;;;;;4.15;1.00;;;2.40;92.80;;;;;;2056095;28;20046;-90
2022/02/25 04:33:23;;;;;;;3.00;1.10;;;2.40;92.80;;;;;;2107091;28;20101;-90
2022/02/25 04:34:24;;;;;;;3.22;1.30;;;2.40;92.80;;;;;;2095080;28;20041;-90
2022/02/25 04:35:25;;;;;;;6.15;1.20;;;2.40;92.80;;;;;;2075691;28;20044;-90
2022/02/25 04:36:26;;;;;;;5.00;1.38;;;2.40;92.80;;;;;;2055841;28;20063;-90
2022/02/25 04:37:27;;;;;;;4.05;1.10;;;2.40;92.80;;;;;;2055935;28;20085;-90
2022/02/25 04:38:28;;;;;;;3.53;1.17;;;2.40;92.80;;;;;;2048895;28;20562;-89
2022/02/25 04:39:28;;;;;;;5.38;1.23;;;2.40;92.80;;;;;;2050260;28;20390;-90
2022/02/25 04:40:30;;;;;;;4.28;1.30;;;2.40;92.80;;;;;;2056106;28;20039;-90
2022/02/25 04:41:30;;;;;;;4.95;1.35;;;2.40;92.80;;;;;;2054910;28;20049;-90
2022/02/25 04:42:31;;;;;;;3.65;1.15;;;2.40;92.80;;;;;;2055145;28;20034;-90
2022/02/25 04:43:32;;;;;;;3.95;1.30;;;2.40;92.80;;;;;;2064531;28;20039;-90
2022/02/25 04:44:33;;;;;;;3.65;1.30;;;2.30;92.80;;;;;;2064665;28;20117;-90
2022/02/25 04:45:34;;;;;;;4.80;1.20;;;2.40;92.80;;;;;;2098689;28;20040;-91
2022/02/25 04:46:38;;;;;;;4.10;1.20;;;2.40;92.90;;;;;;2083960;28;20040;-90
2022/02/25 04:47:40;;;;;;;5.35;1.40;;;2.40;92.80;;;;;;2064452;28;20064;-90
2022/02/25 04:48:40;;;;;;;4.72;1.25;;;2.40;92.80;;;;;;2049633;28;20121;-90
2022/02/25 04:49:41;;;;;;;5.95;1.55;;;2.40;92.80;;;;;;2058636;28;20129;-88
2022/02/25 04:50:41;;;;;;;5.43;1.60;;;2.30;92.80;;;;;;2050836;28;20043;-91
2022/02/25 04:51:43;;;;;;;4.47;1.27;;;2.30;92.80;;;;;;2062235;28;20054;-89
2022/02/25 04:52:44;;;;;;;5.97;1.27;;;2.40;92.80;;;;;;2059594;28;20512;-89
2022/02/25 04:53:46;;;;;;;4.97;1.27;;;2.30;92.80;;;;;;2064947;28;20026;-90
2022/02/25 04:54:46;;;;;;;3.97;1.17;;;2.40;92.80;;;;;;2059915;28;20031;-90
2022/02/25 04:55:47;;;;;;;5.88;1.23;;;2.30;92.80;;;;;;2056216;28;20096;-90
2022/02/25 04:56:48;;;;;;;6.22;1.50;;;2.30;92.80;;;;;;2055933;28;20500;-90
2022/02/25 04:57:49;;;;;;;3.35;1.10;;;2.40;92.80;;;;;;2056408;28;20027;-90
2022/02/25 04:58:50;;;;;;;6.18;1.85;;;2.30;92.80;;;;;;2056362;28;20457;-90
2022/02/25 04:59:51;;;;;;;5.20;1.35;;;2.30;92.80;;;;;;2059709;28;20590;-89
2022/02/25 05:00:51;;;;;;;3.72;1.25;;;2.40;92.80;;;;;;2078379;28;20056;-90
2022/02/25 05:01:52;;;;;;;4.72;1.45;;;2.30;92.80;;;;;;2061597;28;20031;-90
2022/02/25 05:02:53;;;;;;;4.93;1.38;;;2.40;92.90;;;;;;2064930;28;20038;-90
2022/02/25 05:03:53;;;;;;;4.10;1.30;;;2.30;92.80;;;;;;2056120;28;20124;-90
2022/02/25 05:04:54;;;;;;;4.15;1.10;;;2.30;92.80;;;;;;2082901;28;20545;-90
2022/02/25 05:05:55;;;;;;;4.03;1.08;;;2.30;92.80;;;;;;2093214;28;20062;-90
2022/02/25 05:06:55;;;;;;;5.93;1.40;;;2.30;93.10;;;;;;2090915;28;20384;-90
2022/02/25 05:07:58;;;;;;;6.93;1.50;;;2.40;92.90;;;;;;2060111;28;20042;-90
2022/02/25 05:08:59;;;;;;;4.53;1.27;;;2.30;92.80;;;;;;2058376;28;20064;-90
2022/02/25 05:10:00;;;;;;;5.85;1.17;;;2.30;92.90;;;;;;2055588;28;20416;-90
2022/02/25 05:11:00;;;;;;;3.78;1.20;;;2.30;92.80;;;;;;2045120;28;20071;-90
2022/02/25 05:12:01;;;;;;;5.47;1.38;;;2.40;92.90;;;;;;2043123;28;20046;-90
2022/02/25 05:13:02;;;;;;;3.85;1.38;;;2.40;92.90;;;;;;2044182;28;20028;-91
2022/02/25 05:14:02;;;;;;;4.85;1.30;;;2.40;93.10;;;;;;2042362;28;20463;-89
2022/02/25 05:20:28;;;;;;;5.50;1.40;;;2.30;92.80;;;;;;2077961;28;20046;-89
2022/02/25 05:21:29;;;;;;;4.30;1.30;;;2.30;92.80;;;;;;2064761;28;20034;-90
2022/02/25 05:22:30;;;;;;;6.22;2.05;;;2.30;93.10;;;;;;2069717;28;20161;-89
2022/02/25 05:23:31;;;;;;;6.45;1.20;;;2.30;92.80;;;;;;2054553;28;20439;-90
2022/02/25 05:24:32;;;;;;;3.85;1.30;;;2.30;92.80;;;;;;2049024;28;20042;-90
2022/02/25 05:25:33;;;;;;;6.07;1.50;;;2.30;92.80;;;;;;2055786;28;20033;-90
2022/02/25 05:26:33;;;;;;;4.63;1.45;;;2.30;92.90;;;;;;2046669;28;20177;-89
2022/02/25 05:27:34;;;;;;;6.20;1.30;;;2.40;92.90;;;;;;2046579;28;20032;-89